Hit Tracker is now ESPN Home Run Tracker! Hit Tracker founder Greg Rybarczyk is now collaborating with the ESPN Stats & Information Group to continue tracking all MLB home runs, and helping baseball fans know "How Far It Really Went!™" Please credit any information on this site to ESPN Stats & Information Group. For more information and analysis on home runs, please contact founder Greg Rybarczyk. E-Mail ESPN Home Run Tracker
Main Page | Ballparks | Park Overlays | Glossary | Highlight Homers | Feedback | Bio | 3 Types of HR's | AAA Home Run Derby Last Updated: August 3, 2015, 10:47 pm PST
Welcome to the ESPN Home Run Tracker! Check out the ESPN MLB Scoreboard throughout the 2015 season! Contact us at grybar@hittrackeronline.com.
Season:
Ballpark detail for Comerica Park
Ballpark # of Home Runs HR per game Avg.
True
Distance
Avg.
Speed
Off
Bat
Avg.
Std.
Dist.
Comerica Park 100 1.92 393.1 103.6 391.1

Scatter Plot of Home Runs Comerica Park
 Overlay Ballpark:
Without range rings   With range rings

2015 Season Home Runs for Comerica Park
Click headers to sort
Date Video Path Hitter Hitter
Team
Pitcher Pitcher
Team
INN Ballpark Type/
Luck
True
Dist.
Speed
Off
Bat
Elev.
Angle
Horiz.
Angle
Apex Impact Due To: Std.
Dist.
#
Parks
Wind Temp. Alt. ^
05/14/15 Video View Castellanos, Nick DET Pelfrey, Mike MIN 5 Comerica Par... JE/L 374 104.5 21.1 76.9 55 1 0 0 373 3
05/12/15 Video View Martinez, J.D. DET Gibson, Kyle MIN 4 Comerica Par... JE 368 106.6 21.7 65.8 52 2 -1 0 366 9
04/09/15 Video View Martinez, J.D. DET Gibson, Kyle MIN 4 Comerica Par... PL 391 106.5 23.8 70.3 71 -4 -1 0 394 29
04/21/15 Video View Drew, Stephen NYY Krol, Ian DET 7 Comerica Par... PL 363 102.1 26.0 59.4 65 0 -2 0 364 26
06/02/15 Video View Zobrist, Ben OAK Nesbitt, Angel DET 7 Comerica Par... JE 361 107.4 21.5 60.4 50 -1 -1 0 361 12
06/10/15 Video View Cespedes, Yoenis DET Arrieta, Jake CHC 6 Comerica Par... PL 413 107.4 23.0 102.0 67 1 0 0 412 30
06/28/15 Video View McCann, James DET Putnam, Zach CHW 9 Comerica Par... PL 376 103.0 25.6 116.6 65 2 0 0 373 23
07/02/15 Video View Cervelli, Francisco PIT Ryan, Kyle DET 4 Comerica Par... JE 388 105.5 22.3 105.9 64 3 0 0 385 13
07/05/15 Video View Martinez, J.D. DET Schultz, Bo TOR 6 Comerica Par... JE 349 101.5 24.6 55.7 56 0 0 0 348 18
07/05/15 Video View Gose, Anthony DET Schultz, Bo TOR 7 Comerica Par... JE 366 105.0 22.6 65.5 54 0 0 0 366 14
05/14/15 Video View Cabrera, Miguel DET Duensing, Brian MIN 6 Comerica Par... ND 416 107.8 26.4 107.6 93 -5 -2 1 421 30
05/14/15 Video View Cabrera, Miguel DET Graham, J.R. MIN 7 Comerica Par... JE 358 95.1 30.5 72.0 88 -2 -2 1 360 13
05/14/15 Video View Holaday, Bryan DET Graham, J.R. MIN 8 Comerica Par... PL 388 104.7 28.2 114.6 91 -9 -2 1 397 30
05/20/15 Video View Braun, Ryan MIL Greene, Shane DET 4 Comerica Par... ND 401 106.2 27.8 115.9 84 0 -2 1 401 30
05/18/15 Video View Gomez, Carlos MIL Lobstein, Kyle DET 1 Comerica Par... PL 389 108.8 24.7 123.7 64 -1 1 1 388 30
05/18/15 Video View Ramirez, Aramis MIL Lobstein, Kyle DET 4 Comerica Par... PL 393 109.9 24.4 122.8 65 -2 1 1 393 30
05/19/15 Video View Ramirez, Aramis MIL Sanchez, Anibal DET 3 Comerica Par... PL 402 106.9 25.7 109.5 82 -5 -1 1 408 30
04/26/15 Video View Cabrera, Miguel DET Atchison, Scott CLE 6 Comerica Par... JE/L 355 95.5 28.3 71.3 76 -1 -2 1 357 10
04/26/15 Video View Murphy, David CLE Soria, Joakim DET 9 Comerica Par... PL/L 370 96.8 31.5 78.4 105 -6 -3 1 377 21
05/21/15 Video View Tucker, Preston HOU Soria, Joakim DET 9 Comerica Par... PL 380 97.2 30.0 107.6 84 8 -1 1 372 18
04/06/15 Video View Martinez, J.D. DET Hughes, Phil MIN 2 Comerica Par... JE 418 103.5 28.7 78.7 100 6 -2 1 413 28
04/17/15 Video View Garcia, Avisail CHW Price, David DET 2 Comerica Par... PL 393 100.4 29.7 75.2 96 0 -1 1 393 28
04/18/15 Video View LaRoche, Adam CHW Sanchez, Anibal DET 3 Comerica Par... PL 381 105.8 25.0 62.0 67 -1 0 1 382 30
04/18/15 Video View Abreu, Jose CHW Sanchez, Anibal DET 4 Comerica Par... PL 396 109.5 21.6 109.4 60 5 0 1 391 25
04/18/15 Video View Martinez, J.D. DET Sale, Chris CHW 4 Comerica Par... PL 375 97.8 30.7 73.7 97 -3 -1 1 377 29
04/19/15 Video View Cespedes, Yoenis DET Quintana, Jose CHW 1 Comerica Par... PL 408 116.0 20.0 109.1 56 0 -2 1 409 30
04/19/15 Video View Cespedes, Yoenis DET Quintana, Jose CHW 3 Comerica Par... PL 386 105.8 27.2 116.2 87 -9 -3 1 397 30
04/20/15 Video View Teixeira, Mark NYY Simon, Alfredo DET 2 Comerica Par... JE 371 97.4 28.8 67.9 82 8 -2 1 363 5
04/24/15 Video View Castellanos, Nick DET Salazar, Danny CLE 2 Comerica Par... PL 424 105.4 28.6 83.1 112 -4 -3 1 430 30
04/24/15 Video View Moss, Brandon CLE Wilson, Alex DET 5 Comerica Par... PL 379 103.5 26.4 65.6 76 -4 -2 1 384 30
05/22/15 Video View Martinez, J.D. DET McHugh, Collin HOU 3 Comerica Par... JE/L 377 101.1 24.2 75.6 66 0 0 1 377 15
05/24/15 Video View Gattis, Evan HOU Sanchez, Anibal DET 6 Comerica Par... PL 395 100.5 29.8 110.2 86 8 1 1 385 30
05/24/15 Video View Cabrera, Miguel DET Gregerson, Luke HOU 9 Comerica Par... PL 385 106.5 25.5 120.7 68 -2 0 1 385 30
06/03/15 Video View Reddick, Josh OAK Sanchez, Anibal DET 3 Comerica Par... JE 343 96.4 30.6 59.9 83 -9 0 1 352 29
06/04/15 Video View Collins, Tyler DET Otero, Dan OAK 9 Comerica Par... PL 382 106.7 24.9 60.8 68 -3 1 1 385 30
06/10/15 Video View Coghlan, Chris CHC Greene, Shane DET 3 Comerica Par... ND 423 107.5 27.0 73.0 90 -2 2 1 422 30
06/10/15 Video View Montero, Miguel CHC Alburquerque, Al DET 7 Comerica Par... ND 416 105.6 28.8 70.1 93 2 1 1 411 30
06/12/15 Video View Cabrera, Miguel DET Salazar, Danny CLE 6 Comerica Par... PL 452 110.0 23.5 92.7 83 2 0 1 450 30
06/14/15 Video View Martinez, J.D. DET Atchison, Scott CLE 6 Comerica Par... PL 388 99.9 28.6 75.1 88 -1 0 1 388 25
06/15/15 Video View Martinez, J.D. DET Adcock, Nate CIN 6 Comerica Par... JE 407 102.7 29.2 77.6 104 -3 0 1 408 29
06/16/15 Video View Bruce, Jay CIN Ryan, Kyle DET 5 Comerica Par... JE 346 96.2 30.6 54.1 76 0 0 1 345 25
06/16/15 Video View Frazier, Todd CIN Ryan, Kyle DET 7 Comerica Par... JE/L 422 105.0 24.5 95.4 79 1 0 1 421 29
06/25/15 Video View Eaton, Adam CHW Simon, Alfredo DET 1 Comerica Par... PL 379 104.1 26.3 61.9 71 -3 0 1 381 29
06/26/15 Video View Eaton, Adam CHW Sanchez, Anibal DET 1 Comerica Par... PL 385 101.6 28.6 67.2 83 -1 0 1 385 30
06/26/15 Video View Abreu, Jose CHW Sanchez, Anibal DET 3 Comerica Par... JE/L 428 107.3 23.0 96.4 79 2 0 1 425 26
06/26/15 Video View Davis, Rajai DET Petricka, Jake CHW 7 Comerica Par... ND 405 105.2 28.4 112.8 89 1 0 1 403 30
06/26/15 Video View Martinez, J.D. DET Duke, Zach CHW 8 Comerica Par... ND 426 112.5 22.4 105.7 69 0 0 1 425 30
06/28/15 Video View Cabrera, Melky CHW Price, David DET 4 Comerica Par... ND 450 115.2 25.3 114.0 85 7 0 1 442 30
06/30/15 Video View Martinez, J.D. DET Watson, Tony PIT 8 Comerica Par... PL 410 103.1 26.2 99.5 85 0 0 1 409 28
07/01/15 Video View Walker, Neil PIT Simon, Alfredo DET 3 Comerica Par... PL 384 104.1 28.1 56.4 75 2 0 1 381 30
07/01/15 Video View Walker, Neil PIT Chamberlain, Joba DET 8 Comerica Par... JE 354 98.2 28.0 120.8 68 1 0 1 353 13
07/01/15 Video View Marte, Starling PIT Chamberlain, Joba DET 8 Comerica Par... ND 423 108.2 25.4 106.0 81 1 0 1 421 30
07/02/15 Video View Martinez, J.D. DET Bastardo, Antonio PIT 8 Comerica Par... JE/L 413 104.2 24.0 83.6 81 0 0 1 412 27
07/04/15 Video View Martinez, J.D. DET Dickey, R.A. TOR 1 Comerica Par... PL 400 104.1 24.6 103.5 73 0 1 1 399 28
07/05/15 Video View Bautista, Jose TOR Verlander, Justin DET 5 Comerica Par... PL 391 109.9 23.5 119.9 63 -1 0 1 390 30
07/05/15 Video View Smoak, Justin TOR Verlander, Justin DET 5 Comerica Par... PL 381 106.4 22.3 70.5 57 0 0 1 380 20
07/17/15 Video View Iglesias, Jose DET Jimenez, Ubaldo BAL 4 Comerica Par... JE 366 95.0 31.9 111.8 86 8 2 1 355 8
07/17/15 Video View Martinez, J.D. DET Jimenez, Ubaldo BAL 5 Comerica Par... ND 448 110.4 26.0 103.8 88 4 1 1 441 30
07/19/15 Video View Schoop, Jonathan BAL Verlander, Justin DET 4 Comerica Par... PL 374 103.4 26.5 125.7 64 4 1 1 367 30
07/20/15 Video View Cano, Robinson SEA Simon, Alfredo DET 5 Comerica Par... PL 392 107.9 22.0 107.3 57 0 1 1 391 26
07/21/15 Video View Cruz, Nelson SEA Greene, Shane DET 3 Comerica Par... PL 452 112.0 21.4 91.2 72 -1 1 1 453 30
07/21/15 Video View Martinez, J.D. DET Walker, Taijuan SEA 3 Comerica Par... PL 466 111.5 24.2 92.4 91 2 1 1 463 30
07/21/15 Video View Cespedes, Yoenis DET Walker, Taijuan SEA 5 Comerica Par... PL 422 106.9 23.4 98.1 74 0 0 1 421 30
07/21/15 Video View Gutierrez, Franklin SEA Feliz, Neftali DET 8 Comerica Par... PL 383 100.4 28.4 68.6 80 2 1 1 379 26
07/22/15 Video View Castellanos, Nick DET Montgomery, Mike SEA 3 Comerica Par... PL 448 109.5 25.5 98.3 95 0 0 1 446 30
07/23/15 Video View Seager, Kyle SEA Price, David DET 1 Comerica Par... JE 360 98.6 27.3 63.4 69 1 1 1 358 23
05/19/15 Video View Braun, Ryan MIL Sanchez, Anibal DET 3 Comerica Par... PL 340 96.6 34.7 61.8 107 -13 -3 2 354 29
05/19/15 Video View Lind, Adam MIL Sanchez, Anibal DET 3 Comerica Par... PL 369 99.2 33.5 70.9 115 -7 -4 2 378 29
05/08/15 Video View Perez, Salvador KC Price, David DET 4 Comerica Par... PL 420 104.7 31.2 102.9 116 0 1 2 416 30
05/21/15 Video View Castellanos, Nick DET Feldman, Scott HOU 4 Comerica Par... PL 438 106.4 28.5 101.9 100 10 -2 2 428 30
05/21/15 Video View McCann, James DET Sipp, Tony HOU 11 Comerica Par... JE/L 360 94.8 36.0 113.8 105 13 -2 2 346 2
04/06/15 Video View Avila, Alex DET Hughes, Phil MIN 2 Comerica Par... PL 398 100.7 30.3 106.1 95 7 -3 2 392 30
04/21/15 Video View Young, Chris NYY Krol, Ian DET 7 Comerica Par... PL 361 96.3 32.8 116.7 91 7 -4 2 356 20
04/24/15 Video View Chisenhall, Lonnie CLE Alburquerque, Al DET 8 Comerica Par... PL 361 98.2 32.6 66.1 102 -6 -4 2 369 29
05/24/15 Video View Tucker, Preston HOU Sanchez, Anibal DET 6 Comerica Par... PL 377 100.8 32.5 58.2 96 0 1 2 374 30
06/13/15 Video View Santana, Carlos CLE Verlander, Justin DET 4 Comerica Par... PL 396 101.3 31.0 75.8 107 -4 -1 2 398 30
06/13/15 Video View Martinez, J.D. DET Shaw, Bryan CLE 8 Comerica Par... PL 441 107.2 28.9 89.3 122 -5 0 2 445 29
06/14/15 Video View Cabrera, Miguel DET Kluber, Corey CLE 4 Comerica Par... PL 450 107.8 27.6 91.3 117 -3 2 2 448 30
06/14/15 Video View Moss, Brandon CLE Soria, Joakim DET 9 Comerica Par... JE 351 95.1 34.1 115.1 99 -2 1 2 351 13
06/16/15 Video View Frazier, Todd CIN Ryan, Kyle DET 5 Comerica Par... PL 395 98.7 34.0 104.0 111 14 0 2 380 23
06/25/15 Video View Kinsler, Ian DET Rodon, Carlos CHW 1 Comerica Par... PL 391 100.6 33.6 102.9 121 -2 1 2 391 30
06/25/15 Video View Martinez, J.D. DET Rodon, Carlos CHW 5 Comerica Par... ND 421 105.2 30.2 101.9 113 -3 0 2 421 30
06/26/15 Video View Flowers, Tyler CHW Sanchez, Anibal DET 7 Comerica Par... JE/L 341 94.6 36.9 61.4 108 0 0 2 339 24
07/01/15 Video View Alvarez, Pedro PIT Chamberlain, Joba DET 8 Comerica Par... JE 431 105.1 30.6 82.7 118 4 -1 2 427 30
07/04/15 Video View Colabello, Chris TOR Ferrell, Jeff DET 9 Comerica Par... PL 397 103.1 32.4 110.7 112 -3 2 2 396 30
07/19/15 Video View Jones, Adam BAL Verlander, Justin DET 1 Comerica Par... PL 388 100.4 33.2 121.6 94 12 3 2 371 30
07/20/15 Video View Kinsler, Ian DET Lowe, Mark SEA 8 Comerica Par... PL 398 100.5 32.0 112.8 95 13 2 2 381 30
07/21/15 Video View Castellanos, Nick DET Wilhelmsen, Tom SEA 7 Comerica Par... PL 368 95.9 35.2 70.6 109 8 1 2 357 10
07/22/15 Video View Cruz, Nelson SEA Sanchez, Anibal DET 6 Comerica Par... PL 364 98.1 34.1 60.6 101 0 1 2 361 30
05/13/15 Video View Hunter, Torii MIN Lobstein, Kyle DET 1 Comerica Par... PL 363 102.0 34.5 111.3 129 -18 -4 3 384 30
04/17/15 Video View Cespedes, Yoenis DET Samardzija, Jeff CHW 4 Comerica Par... ND 432 112.8 30.1 112.7 120 -11 -2 3 442 30
04/22/15 Video View Teixeira, Mark NYY Alburquerque, Al DET 7 Comerica Par... PL 382 99.6 34.6 71.0 121 11 -8 3 376 21
04/24/15 Video View Moss, Brandon CLE Alburquerque, Al DET 9 Comerica Par... PL 392 103.7 34.6 76.4 138 -3 -7 3 399 30
07/01/15 Video View McCann, James DET Caminero, Arquimedes PIT 9 Comerica Par... ND 408 105.3 33.6 110.5 124 4 -1 3 402 30
07/04/15 Video View Pillar, Kevin TOR Price, David DET 5 Comerica Par... PL 384 102.1 34.8 113.9 120 -2 3 3 381 30
07/17/15 Video View Martinez, Victor DET Jimenez, Ubaldo BAL 1 Comerica Par... PL 369 103.2 34.2 68.0 133 -30 3 3 390 30
07/18/15 Video View Machado, Manny BAL Price, David DET 3 Comerica Par... ND 435 109.9 33.3 119.4 117 15 3 3 415 30
07/22/15 Video View Cruz, Nelson SEA Sanchez, Anibal DET 4 Comerica Par... ND 441 110.4 30.5 107.6 120 0 1 3 438 30
05/09/15 Video View Escobar, Alcides KC Sanchez, Anibal DET 1 Comerica Par... PL/L 379 97.1 41.8 113.5 133 56 2 4 319 0
07/20/15 Video View Kinsler, Ian DET Happ, J.A. SEA 1 Comerica Par... PL/L 364 97.1 41.1 112.0 135 33 4 4 325 0


About HitTracker | Contact Us
© 2006-2015 HitTrackerOnline